createdAt,value
2022-12-13T00:01:20.361Z,0.40
2022-12-13T00:04:10.189Z,0.40
2022-12-13T00:06:59.731Z,0.40
2022-12-13T00:09:49.064Z,0.40
2022-12-13T00:12:38.577Z,0.40
2022-12-13T00:15:28.048Z,0.40
2022-12-13T00:18:18.907Z,0.50
2022-12-13T00:21:09.256Z,0.50
2022-12-13T00:23:59.319Z,0.50
2022-12-13T00:26:48.680Z,0.60
2022-12-13T00:29:38.821Z,0.50
2022-12-13T00:32:28.193Z,0.50
2022-12-13T00:35:19.125Z,0.50
2022-12-13T00:38:08.647Z,0.50
2022-12-13T00:40:57.956Z,0.50
2022-12-13T00:43:48.201Z,0.40
2022-12-13T00:46:37.634Z,0.40
2022-12-13T00:49:26.859Z,0.40
2022-12-13T00:52:17.685Z,0.40
2022-12-13T00:55:07.933Z,0.40
2022-12-13T00:57:57.240Z,0.30
2022-12-13T01:00:46.647Z,0.40
2022-12-13T01:03:36.027Z,0.20
2022-12-13T01:06:34.501Z,0.10
2022-12-13T01:09:29.144Z,0.10
2022-12-13T01:12:19.080Z,0.00
2022-12-13T01:15:09.814Z,0.00
2022-12-13T01:17:59.210Z,0.00
2022-12-13T01:20:59.856Z,0.00
2022-12-13T01:23:49.451Z,0.00
2022-12-13T01:26:40.256Z,0.00
2022-12-13T01:29:30.197Z,0.00
2022-12-13T01:32:19.555Z,0.00
2022-12-13T01:35:09.357Z,0.00
2022-12-13T01:37:58.818Z,0.00
2022-12-13T01:40:49.777Z,-0.20
2022-12-13T01:43:56.316Z,-0.10
2022-12-13T01:46:45.616Z,-0.10
2022-12-13T01:49:34.969Z,-0.10
2022-12-13T01:52:24.780Z,0.00
2022-12-13T01:55:15.925Z,-0.10
2022-12-13T01:58:06.750Z,-0.10
2022-12-13T02:00:58.196Z,-0.20
2022-12-13T02:03:47.844Z,-0.10
2022-12-13T02:06:39.093Z,-0.20
2022-12-13T02:09:28.891Z,-0.30
2022-12-13T02:12:24.460Z,-0.30
2022-12-13T02:15:22.053Z,-0.30
2022-12-13T02:18:31.131Z,-0.30
2022-12-13T02:21:30.410Z,-0.30
2022-12-13T02:24:44.760Z,-0.30
2022-12-13T02:27:52.045Z,-0.40
2022-12-13T02:30:55.563Z,-0.40
2022-12-13T02:33:53.228Z,-0.40
2022-12-13T02:36:51.495Z,-0.40
2022-12-13T02:39:46.098Z,-0.40
2022-12-13T02:42:42.585Z,-0.50
2022-12-13T02:45:37.343Z,-0.50
2022-12-13T02:48:32.136Z,-0.50
2022-12-13T02:51:23.546Z,-0.60
2022-12-13T02:54:13.230Z,-0.60
2022-12-13T02:57:03.121Z,-0.70
2022-12-13T02:59:52.782Z,-0.70
2022-12-13T03:02:51.309Z,-0.70
2022-12-13T03:06:07.466Z,-0.80
2022-12-13T03:09:08.206Z,-0.90
2022-12-13T03:12:37.414Z,-0.90
2022-12-13T03:15:34.775Z,-0.90
2022-12-13T03:18:27.326Z,-0.90
2022-12-13T03:21:18.436Z,-0.90
2022-12-13T03:24:08.737Z,-0.90
2022-12-13T03:26:58.370Z,-1.00
2022-12-13T03:29:47.880Z,-1.00
2022-12-13T03:32:37.628Z,-1.10
2022-12-13T03:35:34.386Z,-1.30
2022-12-13T03:38:27.762Z,-1.40
2022-12-13T03:41:21.581Z,-1.40
2022-12-13T03:44:11.454Z,-1.30
2022-12-13T03:47:01.075Z,-1.30
2022-12-13T03:49:54.396Z,-1.20
2022-12-13T03:52:44.811Z,-1.20
2022-12-13T03:55:35.908Z,-1.20
2022-12-13T03:58:25.544Z,-1.20
2022-12-13T04:01:24.539Z,-1.10
2022-12-13T04:04:14.109Z,-1.20
2022-12-13T04:07:03.649Z,-1.20
2022-12-13T04:09:53.062Z,-1.20
2022-12-13T04:13:01.336Z,-1.20
2022-12-13T04:15:51.053Z,-1.20
2022-12-13T04:18:40.707Z,-1.30
2022-12-13T04:21:30.113Z,-1.30
2022-12-13T04:24:19.872Z,-1.20
2022-12-13T04:27:09.546Z,-1.20
2022-12-13T04:30:00.373Z,-1.20
2022-12-13T04:32:49.927Z,-1.20
2022-12-13T04:35:39.418Z,-1.30
2022-12-13T04:38:28.960Z,-1.30
2022-12-13T04:41:20.294Z,-1.20
2022-12-13T04:44:28.839Z,-1.20
2022-12-13T04:47:20.839Z,-1.20
2022-12-13T04:50:10.979Z,-1.20
2022-12-13T04:53:00.561Z,-1.20
2022-12-13T04:55:50.127Z,-1.20
2022-12-13T04:58:39.739Z,-1.30
2022-12-13T05:01:29.254Z,-1.30
2022-12-13T05:04:20.257Z,-1.40
2022-12-13T05:07:09.876Z,-1.50
2022-12-13T05:09:59.524Z,-1.50
2022-12-13T05:12:48.975Z,-1.70
2022-12-13T05:15:53.626Z,-1.80
2022-12-13T05:18:44.778Z,-2.00
2022-12-13T05:21:35.795Z,-2.20
2022-12-13T05:24:25.678Z,-2.20
2022-12-13T05:27:24.569Z,-2.30
2022-12-13T05:30:16.409Z,-2.20
2022-12-13T05:33:05.901Z,-2.20
2022-12-13T05:35:59.982Z,-2.20
2022-12-13T05:38:53.367Z,-2.10
2022-12-13T05:41:42.931Z,-2.10
2022-12-13T05:44:33.549Z,-2.20
2022-12-13T05:47:23.382Z,-2.20
2022-12-13T05:50:14.615Z,-2.20
2022-12-13T05:53:06.176Z,-2.20
2022-12-13T05:56:00.939Z,-2.10
2022-12-13T05:58:53.406Z,-2.10
2022-12-13T06:01:44.031Z,-2.10
2022-12-13T06:04:33.855Z,-2.10
2022-12-13T06:07:23.468Z,-2.20
2022-12-13T06:10:13.203Z,-2.10
2022-12-13T06:13:21.417Z,-2.10
2022-12-13T06:16:23.043Z,-2.10
2022-12-13T06:19:13.832Z,-2.10
2022-12-13T06:22:03.432Z,-2.10
2022-12-13T06:24:53.226Z,-2.00
2022-12-13T06:27:42.799Z,-2.10
2022-12-13T06:30:34.389Z,-2.10
2022-12-13T06:33:24.851Z,-2.00
2022-12-13T06:36:14.523Z,-2.10
2022-12-13T06:39:04.623Z,-2.00
2022-12-13T06:41:54.464Z,-2.00
2022-12-13T06:44:44.892Z,-2.10
2022-12-13T06:47:35.882Z,-2.00
2022-12-13T06:50:26.325Z,-2.10
2022-12-13T06:53:16.061Z,-2.00
2022-12-13T06:56:07.154Z,-2.00
2022-12-13T06:59:01.971Z,-2.00
2022-12-13T07:01:52.328Z,-2.00
2022-12-13T07:04:43.441Z,-2.00
2022-12-13T07:07:33.053Z,-2.00
2022-12-13T07:10:23.290Z,-1.90
2022-12-13T07:13:13.112Z,-2.00
2022-12-13T07:16:02.893Z,-2.00
2022-12-13T07:19:00.974Z,-1.90
2022-12-13T07:21:52.599Z,-1.80
2022-12-13T07:24:42.149Z,-1.80
2022-12-13T07:27:31.865Z,-1.80
2022-12-13T07:30:21.568Z,-1.80
2022-12-13T07:33:12.601Z,-1.80
2022-12-13T07:36:03.502Z,-1.80
2022-12-13T07:38:55.895Z,-1.80
2022-12-13T07:41:45.624Z,-2.00
2022-12-13T07:44:35.240Z,-2.00
2022-12-13T07:47:26.375Z,-2.10
2022-12-13T07:50:24.891Z,-2.30
2022-12-13T07:53:15.660Z,-2.40
2022-12-13T07:56:08.521Z,-2.40
2022-12-13T07:58:58.061Z,-2.50
2022-12-13T08:01:48.072Z,-2.40
2022-12-13T08:04:38.503Z,-2.40
2022-12-13T08:07:28.442Z,-2.40
2022-12-13T08:10:18.222Z,-2.60
2022-12-13T08:13:11.171Z,-2.60
2022-12-13T08:16:02.361Z,-2.70
2022-12-13T08:18:52.250Z,-3.10
2022-12-13T08:21:56.224Z,-2.70
2022-12-13T08:24:46.659Z,-2.70
2022-12-13T08:27:36.719Z,-2.70
2022-12-13T08:30:35.497Z,-2.80
2022-12-13T08:33:25.098Z,-2.70
2022-12-13T08:36:16.949Z,-2.60
2022-12-13T08:39:06.537Z,-2.40
2022-12-13T08:41:55.901Z,-2.20
2022-12-13T08:44:45.588Z,-2.10
2022-12-13T08:47:41.597Z,-2.10
2022-12-13T08:50:32.754Z,-2.10
2022-12-13T08:53:28.962Z,-2.20
2022-12-13T08:56:21.255Z,-2.20
2022-12-13T08:59:11.151Z,-2.20
2022-12-13T09:02:05.020Z,-2.20
2022-12-13T09:04:56.430Z,-2.10
2022-12-13T09:07:45.939Z,-1.90
2022-12-13T09:10:38.131Z,-1.60
2022-12-13T09:13:32.521Z,-1.50
2022-12-13T09:16:24.740Z,-1.60
2022-12-13T09:19:25.942Z,-1.70
2022-12-13T09:22:18.812Z,-1.90
2022-12-13T09:25:24.946Z,-1.70
2022-12-13T09:28:14.536Z,-1.50
2022-12-13T09:31:15.126Z,-1.50
2022-12-13T09:34:12.602Z,-1.60
2022-12-13T09:37:09.250Z,-1.50
2022-12-13T09:40:00.418Z,-1.60
2022-12-13T09:43:13.451Z,-1.60
2022-12-13T09:46:22.650Z,-1.60
2022-12-13T09:49:22.923Z,-1.60
2022-12-13T09:52:21.950Z,-1.50
2022-12-13T09:55:22.396Z,-1.20
2022-12-13T09:58:19.493Z,-0.70
2022-12-13T10:01:09.472Z,-0.30
2022-12-13T10:04:02.169Z,-0.20
2022-12-13T10:06:55.269Z,-0.10
2022-12-13T10:09:44.694Z,-0.20
2022-12-13T10:12:37.441Z,-0.30
2022-12-13T10:15:27.961Z,0.00
2022-12-13T10:18:23.424Z,0.20
2022-12-13T10:21:17.234Z,0.40
2022-12-13T10:24:33.026Z,0.40
2022-12-13T10:27:31.318Z,0.40
2022-12-13T10:30:28.727Z,0.40
2022-12-13T10:33:25.414Z,0.30
2022-12-13T10:36:31.500Z,0.40
2022-12-13T10:39:39.738Z,0.30
2022-12-13T10:42:33.825Z,0.10
2022-12-13T10:45:25.618Z,-0.30
2022-12-13T10:48:26.441Z,-0.50
2022-12-13T10:51:20.457Z,-0.70
2022-12-13T10:54:19.657Z,-1.00
2022-12-13T10:57:13.638Z,-1.00
2022-12-13T11:00:03.025Z,-1.00
2022-12-13T11:02:57.214Z,-1.00
2022-12-13T11:05:50.499Z,-1.00
2022-12-13T11:08:40.057Z,-1.00
2022-12-13T11:11:32.409Z,-0.90
2022-12-13T11:14:31.960Z,-0.80
2022-12-13T11:17:25.887Z,-0.90
2022-12-13T11:20:23.915Z,-1.10
2022-12-13T11:23:23.298Z,-1.10
2022-12-13T11:26:24.482Z,-1.10
2022-12-13T11:29:42.959Z,-1.20
2022-12-13T11:32:59.021Z,-1.20
2022-12-13T11:36:02.491Z,-1.20
2022-12-13T11:39:03.227Z,-1.20
2022-12-13T11:41:58.095Z,-1.10
2022-12-13T11:44:57.950Z,-1.00
2022-12-13T11:47:51.001Z,-1.00
2022-12-13T11:50:50.491Z,-1.00
2022-12-13T11:53:55.129Z,-1.00
2022-12-13T11:56:46.397Z,-0.90
2022-12-13T11:59:44.252Z,-0.70
2022-12-13T12:02:36.873Z,-0.70
2022-12-13T12:05:32.076Z,-0.60
2022-12-13T12:08:31.595Z,-0.50
2022-12-13T12:11:31.625Z,-0.60
2022-12-13T12:14:26.586Z,-0.50
2022-12-13T12:17:17.936Z,-0.40
2022-12-13T12:20:13.868Z,-0.40
2022-12-13T12:23:24.506Z,-0.30
2022-12-13T12:26:17.837Z,-0.30
2022-12-13T12:29:26.312Z,-0.30
2022-12-13T12:32:26.114Z,-0.40
2022-12-13T12:35:46.893Z,-0.30
2022-12-13T12:39:00.366Z,-0.30
2022-12-13T12:42:02.545Z,-0.30
2022-12-13T12:45:27.141Z,-0.40
2022-12-13T12:48:55.034Z,-0.30
2022-12-13T12:51:56.592Z,-0.30
2022-12-13T12:55:03.350Z,-0.40
2022-12-13T12:58:05.484Z,-0.40
2022-12-13T13:01:08.297Z,-0.60
2022-12-13T13:04:01.604Z,-0.60
2022-12-13T13:07:01.828Z,-0.70
2022-12-13T13:09:54.670Z,-0.90
2022-12-13T13:12:45.499Z,-0.90
2022-12-13T13:15:59.243Z,-0.90
2022-12-13T13:18:51.213Z,-1.00
2022-12-13T13:21:47.506Z,-0.90
2022-12-13T13:24:37.104Z,-1.00
2022-12-13T13:27:31.274Z,-1.00
2022-12-13T13:30:22.929Z,-1.00
2022-12-13T13:33:43.921Z,-1.10
2022-12-13T13:36:48.141Z,-1.20
2022-12-13T13:40:02.103Z,-1.20
2022-12-13T13:43:19.892Z,-1.30
2022-12-13T13:46:13.345Z,-1.30
2022-12-13T13:49:09.212Z,-1.30
2022-12-13T13:52:26.629Z,-1.40
2022-12-13T13:55:51.058Z,-1.50
2022-12-13T13:59:12.953Z,-1.60
2022-12-13T14:02:24.600Z,-1.60
2022-12-13T14:06:08.940Z,-1.70
2022-12-13T14:09:38.311Z,-1.80
2022-12-13T14:13:03.141Z,-1.90
2022-12-13T14:16:44.672Z,-2.00
2022-12-13T14:20:08.449Z,-2.00
2022-12-13T14:23:04.730Z,-2.00
2022-12-13T14:26:15.129Z,-2.00
2022-12-13T14:29:11.761Z,-2.00
2022-12-13T14:32:02.304Z,-2.00
2022-12-13T14:34:51.931Z,-2.00
2022-12-13T14:37:41.488Z,-2.00
2022-12-13T14:40:35.290Z,-2.00
2022-12-13T14:43:26.965Z,-2.00
2022-12-13T14:46:17.536Z,-2.00
2022-12-13T14:49:07.967Z,-2.00
2022-12-13T14:52:02.133Z,-2.10
2022-12-13T14:54:58.307Z,-2.10
2022-12-13T14:57:55.034Z,-2.10
2022-12-13T15:00:46.232Z,-2.10
2022-12-13T15:03:37.032Z,-2.20
2022-12-13T15:06:26.549Z,-2.20
2022-12-13T15:09:18.070Z,-2.30
2022-12-13T15:12:23.885Z,-2.40
2022-12-13T15:15:26.303Z,-2.50
2022-12-13T15:18:20.689Z,-2.50
2022-12-13T15:21:24.381Z,-2.60
2022-12-13T15:24:15.197Z,-3.00
2022-12-13T15:27:05.585Z,-2.60
2022-12-13T15:29:56.555Z,-2.80
2022-12-13T15:33:05.531Z,-2.70
2022-12-13T15:36:08.249Z,-2.80
2022-12-13T15:39:03.603Z,-2.80
2022-12-13T15:41:54.019Z,-2.80
2022-12-13T15:44:48.982Z,-3.00
2022-12-13T15:47:38.429Z,-2.60
2022-12-13T15:50:38.514Z,-2.60
2022-12-13T15:53:32.556Z,-2.50
2022-12-13T15:56:33.342Z,-2.40
2022-12-13T15:59:28.036Z,-2.40
2022-12-13T16:02:21.075Z,-2.50
2022-12-13T16:05:11.915Z,-2.50
2022-12-13T16:08:13.789Z,-2.50
2022-12-13T16:11:04.564Z,-2.40
2022-12-13T16:13:58.284Z,-2.40
2022-12-13T16:16:48.336Z,-2.50
2022-12-13T16:19:38.166Z,-2.60
2022-12-13T16:22:27.793Z,-2.40
2022-12-13T16:25:21.418Z,-2.80
2022-12-13T16:28:13.684Z,-2.70
2022-12-13T16:31:15.822Z,-2.90
2022-12-13T16:34:05.636Z,-2.60
2022-12-13T16:36:56.065Z,-2.60
2022-12-13T16:39:46.925Z,-2.50
2022-12-13T16:42:38.103Z,-2.50
2022-12-13T16:45:43.307Z,-2.50
2022-12-13T16:48:33.097Z,-2.50
2022-12-13T16:51:22.982Z,-2.50
2022-12-13T16:54:12.508Z,-2.50
2022-12-13T16:57:02.338Z,-2.50
2022-12-13T16:59:56.317Z,-2.60
2022-12-13T17:02:46.475Z,-2.60
2022-12-13T17:05:38.772Z,-2.60
2022-12-13T17:08:29.788Z,-2.80
2022-12-13T17:11:19.893Z,-3.00
2022-12-13T17:14:12.217Z,-2.70
2022-12-13T17:17:06.205Z,-2.80
2022-12-13T17:19:57.679Z,-2.80
2022-12-13T17:22:48.830Z,-2.60
2022-12-13T17:25:41.601Z,-2.80
2022-12-13T17:28:32.829Z,-2.80
2022-12-13T17:31:35.987Z,-2.80
2022-12-13T17:34:30.820Z,-2.80
2022-12-13T17:37:22.507Z,-2.90
2022-12-13T17:40:13.829Z,-2.80
2022-12-13T17:43:03.857Z,-2.70
2022-12-13T17:45:58.903Z,-2.60
2022-12-13T17:48:50.019Z,-2.40
2022-12-13T17:51:41.266Z,-2.30
2022-12-13T17:54:31.576Z,-2.20
2022-12-13T17:57:21.449Z,-2.20
2022-12-13T18:00:14.368Z,-2.30
2022-12-13T18:03:06.926Z,-2.40
2022-12-13T18:06:01.812Z,-2.60
2022-12-13T18:08:54.232Z,-2.60
2022-12-13T18:11:44.237Z,-2.90
2022-12-13T18:14:35.218Z,-3.00
2022-12-13T18:17:46.607Z,-3.10
2022-12-13T18:20:40.877Z,-3.10
2022-12-13T18:23:36.225Z,-3.20
2022-12-13T18:26:31.235Z,-3.30
2022-12-13T18:29:22.329Z,-3.30
2022-12-13T18:32:14.289Z,-3.40
2022-12-13T18:35:05.809Z,-3.50
2022-12-13T18:38:01.541Z,-3.50
2022-12-13T18:40:56.235Z,-3.50
2022-12-13T18:43:49.415Z,-3.60
2022-12-13T18:46:45.827Z,-3.70
2022-12-13T18:49:37.572Z,-3.70
2022-12-13T18:52:30.528Z,-3.70
2022-12-13T18:55:24.423Z,-3.70
2022-12-13T18:58:16.987Z,-3.60
2022-12-13T19:01:11.380Z,-3.60
2022-12-13T19:04:02.571Z,-3.60
2022-12-13T19:06:56.575Z,-3.80
2022-12-13T19:09:54.708Z,-3.50
2022-12-13T19:12:47.447Z,-3.40
2022-12-13T19:15:40.864Z,-3.20
2022-12-13T19:18:39.989Z,-3.10
2022-12-13T19:21:37.962Z,-3.00
2022-12-13T19:24:36.929Z,-3.30
2022-12-13T19:27:32.390Z,-2.80
2022-12-13T19:30:24.504Z,-2.70
2022-12-13T19:33:16.359Z,-2.70
2022-12-13T19:36:11.559Z,-2.80
2022-12-13T19:39:02.749Z,-3.10
2022-12-13T19:41:54.410Z,-2.80
2022-12-13T19:44:45.837Z,-2.90
2022-12-13T19:47:36.965Z,-3.10
2022-12-13T19:50:28.273Z,-3.10
2022-12-13T19:53:21.957Z,-3.10
2022-12-13T19:56:16.171Z,-3.20
2022-12-13T19:59:08.981Z,-3.30
2022-12-13T20:02:00.133Z,-3.10
2022-12-13T20:04:52.230Z,-3.10
2022-12-13T20:07:43.630Z,-2.90
2022-12-13T20:10:38.953Z,-2.80
2022-12-13T20:13:31.543Z,-2.50
2022-12-13T20:16:24.995Z,-2.60
2022-12-13T20:19:16.740Z,-2.50
2022-12-13T20:22:08.208Z,-2.40
2022-12-13T20:25:00.397Z,-2.40
2022-12-13T20:28:01.074Z,-2.60
2022-12-13T20:30:53.446Z,-2.40
2022-12-13T20:33:45.420Z,-2.40
2022-12-13T20:36:39.246Z,-2.50
2022-12-13T20:39:30.185Z,-2.30
2022-12-13T20:42:23.111Z,-2.60
2022-12-13T20:45:19.337Z,-2.50
2022-12-13T20:48:10.152Z,-2.50
2022-12-13T20:51:05.790Z,-2.40
2022-12-13T20:53:57.391Z,-2.40
2022-12-13T20:56:48.329Z,-2.40
2022-12-13T20:59:39.501Z,-2.40
2022-12-13T21:02:34.406Z,-2.30
2022-12-13T21:05:25.506Z,-2.30
2022-12-13T21:08:32.997Z,-2.70
2022-12-13T21:11:27.473Z,-2.30
2022-12-13T21:14:22.298Z,-2.30
2022-12-13T21:17:13.283Z,-2.30
2022-12-13T21:20:04.729Z,-2.20
2022-12-13T21:22:54.491Z,-2.10
2022-12-13T21:25:43.909Z,-2.10
2022-12-13T21:28:38.464Z,-2.10
2022-12-13T21:31:29.485Z,-2.10
2022-12-13T21:34:19.804Z,-2.10
2022-12-13T21:37:10.678Z,-2.00
2022-12-13T21:40:00.204Z,-2.10
2022-12-13T21:42:49.619Z,-2.10
2022-12-13T21:45:39.171Z,-2.20
2022-12-13T21:48:28.460Z,-2.40
2022-12-13T21:51:19.941Z,-2.40
2022-12-13T21:54:10.793Z,-2.50
2022-12-13T21:57:17.604Z,-2.60
2022-12-13T22:00:07.985Z,-2.60
2022-12-13T22:02:57.408Z,-2.60
2022-12-13T22:05:46.728Z,-2.90
2022-12-13T22:08:36.175Z,-3.10
2022-12-13T22:11:27.042Z,-2.90
2022-12-13T22:14:16.529Z,-3.00
2022-12-13T22:17:06.090Z,-2.90
2022-12-13T22:19:56.387Z,-3.00
2022-12-13T22:22:48.801Z,-3.00
2022-12-13T22:25:38.404Z,-3.20
2022-12-13T22:28:32.205Z,-3.30
2022-12-13T22:31:26.565Z,-3.40
2022-12-13T22:34:19.384Z,-3.60
2022-12-13T22:37:09.125Z,-3.80
2022-12-13T22:39:58.643Z,-4.10
2022-12-13T22:42:48.444Z,-3.80
2022-12-13T22:45:39.477Z,-4.10
2022-12-13T22:48:29.281Z,-4.20
2022-12-13T22:51:20.039Z,-4.20
2022-12-13T22:54:10.271Z,-4.30
2022-12-13T22:56:59.710Z,-4.60
2022-12-13T22:59:49.149Z,-4.60
2022-12-13T23:02:40.081Z,-4.50
2022-12-13T23:05:29.533Z,-4.50
2022-12-13T23:08:19.005Z,-4.70
2022-12-13T23:11:40.993Z,-4.90
2022-12-13T23:14:32.456Z,-4.90
2022-12-13T23:17:21.910Z,-4.90
2022-12-13T23:20:13.908Z,-4.90
2022-12-13T23:23:03.621Z,-5.00
2022-12-13T23:25:53.221Z,-5.10
2022-12-13T23:28:43.883Z,-5.10
2022-12-13T23:31:38.165Z,-5.10
2022-12-13T23:34:27.841Z,-5.30
2022-12-13T23:37:18.917Z,-5.10
2022-12-13T23:40:10.014Z,-5.30
2022-12-13T23:42:59.359Z,-5.50
2022-12-13T23:45:49.000Z,-5.00
2022-12-13T23:48:38.705Z,-4.80
2022-12-13T23:51:28.744Z,-4.90
2022-12-13T23:54:20.506Z,-4.90
2022-12-13T23:57:10.006Z,-5.00
2022-12-13T23:59:59.346Z,-5.00
